Flight Track Log - Related Links

Times and Time Zones

All times are in EDT time to prevent confusion due to time zone crossing. See the AAL1459 flight status page for this flight to view local times or setup timezone preferences in your user account.

Time Position Orientation Groundspeed Altitude Reporting Facility
EDT Latitude Longitude Course Direction KTS MPH feet Rate Location/Type
Sat 06:20:37 PM 41.9450 -87.9100 222° Southwest 181 208 1,000  Level FlightAware ADS-B
Sat 06:20:52 PM 41.9350 -87.9220 222° Southwest 185 213 1,700 2,267 Climbing FlightAware ADS-B
Sat 06:21:22 PM 41.9140 -87.9460 220° Southwest 216 249 2,700 2,000 Climbing FlightAware ADS-B
Sat 06:21:37 PM 41.9020 -87.9590 219° Southwest 233 268 3,200 2,250 Climbing FlightAware ADS-B
Sat 06:22:02 PM 41.8790 -87.9850 220° Southwest 256 295 4,200 3,055 Climbing FlightAware ADS-B
Sat 06:22:32 PM 41.8520 -88.0160 221° Southwest 259 298 6,000 3,333 Climbing FlightAware ADS-B
Sat 06:22:47 PM 41.8450 -88.0360 245° Southwest 258 297 6,700 3,300 Climbing FlightAware ADS-B
Sat 06:22:52 PM 41.8440 -88.0460 262° West 258 297 7,100 3,360 Climbing FlightAware ADS-B
Sat 06:23:12 PM 41.8520 -88.0750 290° West 263 303 8,100 3,086 Climbing FlightAware ADS-B
Sat 06:23:27 PM 41.8640 -88.0890 319° Northwest 259 298 8,900 3,600 Climbing FlightAware ADS-B
Sat 06:23:42 PM 41.8810 -88.1030 328° Northwest 255 293 9,900 3,600 Climbing FlightAware ADS-B
Sat 06:23:57 PM 41.8920 -88.1190 313° West 252 290 10,700 3,120 Climbing FlightAware ADS-B
Sat 06:24:07 PM 41.8970 -88.1340 294° West 256 295 11,200 2,618 Climbing FlightAware ADS-B
Sat 06:24:52 PM 41.9110 -88.2070 284° West 278 320 13,100 1,835 Climbing FlightAware ADS-B
Sat 06:25:32 PM 41.9240 -88.2800 283° West 326 375 13,800 1,714 Climbing FlightAware ADS-B
Sat 06:26:02 PM 41.9400 -88.3370 291° West 328 377 15,100 2,486 Climbing FlightAware ADS-B
Sat 06:26:42 PM 41.9700 -88.4030 301° West 336 387 16,700 2,259 Climbing FlightAware ADS-B
Sat 06:27:27 PM 42.0090 -88.4850 303° West 350 403 18,300 2,259 Climbing FlightAware ADS-B
Sat 06:28:07 PM 42.0470 -88.5640 303° West 360 414 19,900 2,314 Climbing FlightAware ADS-B
Sat 06:28:37 PM 42.0670 -88.6240 294° West 362 417 21,000 1,971 Climbing FlightAware ADS-B
Sat 06:29:17 PM 42.0680 -88.7020 271° West 371 427 22,200 1,950 Climbing FlightAware ADS-B
Sat 06:29:57 PM 42.0670 -88.8010 269° West 376 433 23,600 1,976 Climbing FlightAware ADS-B
Sat 06:30:42 PM 42.0660 -88.9040 269° West 379 436 25,000 1,680 Climbing FlightAware ADS-B
Sat 06:31:37 PM 42.0650 -89.0310 269° West 384 442 26,400 1,453 Climbing FlightAware ADS-B
Sat 06:32:17 PM 42.0650 -89.1330 270° West 391 450 27,300 1,412 Climbing FlightAware ADS-B
Sat 06:33:02 PM 42.0660 -89.2430 271° West 394 453 28,400 1,694 Climbing FlightAware ADS-B
Sat 06:33:42 PM 42.0680 -89.3420 272° West 389 448 29,700 1,835 Climbing FlightAware ADS-B
Sat 06:34:27 PM 42.0690 -89.4520 271° West 383 441 31,000 1,624 Climbing FlightAware ADS-B
Sat 06:35:07 PM 42.0700 -89.5450 271° West 378 435 32,000 1,520 Climbing FlightAware ADS-B
Sat 06:35:42 PM 42.0710 -89.6250 271° West 375 432 32,900 1,271 Climbing FlightAware ADS-B
Sat 06:36:32 PM 42.0750 -89.7480 273° West 377 434 33,800 867 Climbing FlightAware ADS-B
Sat 06:37:12 PM 42.0810 -89.8400 275° West 385 443 34,200 600 Climbing FlightAware ADS-B
Sat 06:37:52 PM 42.0870 -89.9380 275° West 392 451 34,600 776 Climbing FlightAware ADS-B
Sat 06:38:37 PM 42.0930 -90.0460 274° West 393 452 35,300 988 Climbing FlightAware ADS-B
Sat 06:39:17 PM 42.0980 -90.1460 274° West 391 450 36,000 494 Climbing FlightAware ADS-B
Sat 06:40:02 PM 42.1040 -90.2540 274° West 394 453 36,000  Level FlightAware ADS-B
Sat 06:40:42 PM 42.1090 -90.3510 274° West 397 457 36,000  Level FlightAware ADS-B
Sat 06:41:27 PM 42.1150 -90.4560 274° West 400 460 36,000  Level FlightAware ADS-B
Sat 06:42:07 PM 42.1210 -90.5600 274° West 402 463 36,000  Level FlightAware ADS-B
Sat 06:42:47 PM 42.1260 -90.6640 274° West 402 463 36,000  Level FlightAware ADS-B
Sat 06:43:32 PM 42.1310 -90.7750 274° West 400 460 36,000  Level FlightAware ADS-B
Sat 06:44:12 PM 42.1360 -90.8720 274° West 399 459 36,000  Level FlightAware ADS-B
Sat 06:44:52 PM 42.1410 -90.9710 274° West 400 460 36,000  Level FlightAware ADS-B
Sat 06:45:37 PM 42.1460 -91.0780 274° West 400 460 36,000  Level FlightAware ADS-B
Sat 06:46:17 PM 42.1520 -91.1860 274° West 401 461 36,000  Level FlightAware ADS-B
Sat 06:47:02 PM 42.1570 -91.2950 274° West 401 461 36,000  Level FlightAware ADS-B
Sat 06:47:42 PM 42.1610 -91.3940 273° West 402 463 36,000  Level FlightAware ADS-B
Sat 06:48:22 PM 42.1660 -91.4900 274° West 402 463 36,000  Level FlightAware ADS-B
Sat 06:49:07 PM 42.1700 -91.6050 273° West 403 464 36,000  Level FlightAware ADS-B
Sat 06:49:42 PM 42.1740 -91.6860 274° West 403 464 36,000  Level FlightAware ADS-B
Sat 06:50:57 PM 42.1820 -91.8740 273° West 401 461 36,000  Level FlightAware ADS-B
Sat 06:52:07 PM 42.1890 -92.0470 273° West 397 457 36,000  Level FlightAware ADS-B
Sat 06:53:17 PM 42.1950 -92.2190 273° West 394 453 36,000  Level FlightAware ADS-B
Sat 06:54:27 PM 42.2010 -92.3870 273° West 391 450 36,000  Level FlightAware ADS-B
Sat 06:55:27 PM 42.2070 -92.5430 273° West 391 450 36,000  Level FlightAware ADS-B
Sat 06:56:07 PM 42.2100 -92.6330 273° West 392 451 36,000  Level FlightAware ADS-B
Sat 06:56:42 PM 42.2130 -92.7200 273° West 392 451 36,000  Level FlightAware ADS-B
Sat 06:57:32 PM 42.2170 -92.8470 272° West 398 458 36,000  Level FlightAware ADS-B
Sat 06:58:22 PM 42.2210 -92.9690 273° West 399 459 36,000  Level FlightAware ADS-B
Sat 06:59:07 PM 42.2250 -93.0880 273° West 402 463 36,000  Level FlightAware ADS-B
Sat 06:59:52 PM 42.2280 -93.1960 272° West 403 464 36,000  Level FlightAware ADS-B
Sat 07:00:27 PM 42.2300 -93.2790 272° West 403 464 36,000  Level FlightAware ADS-B
Sat 07:01:17 PM 42.2330 -93.3860 272° West 403 464 36,000  Level FlightAware ADS-B
Sat 07:01:57 PM 42.2350 -93.4720 272° West 403 464 36,000  Level FlightAware ADS-B
Sat 07:02:37 PM 42.2370 -93.5570 272° West 403 464 36,000  Level FlightAware ADS-B
Sat 07:03:17 PM 42.2390 -93.6430 272° West 403 464 36,000  Level FlightAware ADS-B
Sat 07:03:57 PM 42.2420 -93.7280 273° West 403 464 36,000  Level FlightAware ADS-B
Sat 07:04:37 PM 42.2440 -93.8140 272° West 403 464 36,000  Level FlightAware ADS-B
Sat 07:05:27 PM 42.2470 -93.9210 272° West 403 464 36,000  Level FlightAware ADS-B
Sat 07:06:07 PM 42.2490 -94.0070 272° West 403 464 36,000  Level FlightAware ADS-B
Sat 07:06:47 PM 42.2510 -94.0920 272° West 403 464 36,000  Level FlightAware ADS-B
Sat 07:07:27 PM 42.2530 -94.1780 272° West 403 464 36,000  Level FlightAware ADS-B
Sat 07:08:17 PM 42.2560 -94.2850 272° West 403 464 36,000  Level FlightAware ADS-B
Sat 07:08:57 PM 42.2580 -94.3700 272° West 403 464 36,000  Level FlightAware ADS-B
Sat 07:09:37 PM 42.2600 -94.4560 272° West 403 464 36,000  Level FlightAware ADS-B
Sat 07:10:38 PM 42.2636 -94.8017 272° West 397 457 36,000  Level Minneapolis Center
Sat 07:11:39 PM 42.2658 -94.9481 271° West 393 452 36,000  Level Minneapolis Center
Sat 07:12:40 PM 42.2675 -95.0961 271° West 395 455 36,000  Level Minneapolis Center
Sat 07:13:42 PM 42.2703 -95.2456 271° West 397 457 36,000  Level Minneapolis Center
Sat 07:14:43 PM 42.2714 -95.3947 271° West 399 459 36,000  Level Minneapolis Center
Sat 07:15:44 PM 42.2725 -95.5761 271° West 403 464 36,000  Level Minneapolis Center
Sat 07:16:45 PM 42.2739 -95.7289 271° West 406 467 36,000  Level Minneapolis Center
Sat 07:17:47 PM 42.2750 -95.8817 271° West 408 470 36,000  Level Minneapolis Center
Sat 07:18:48 PM 42.2758 -96.0358 270° West 411 473 36,000  Level Minneapolis Center
Sat 07:19:49 PM 42.2767 -96.1908 270° West 412 474 36,000  Level Minneapolis Center
Sat 07:20:50 PM 42.2767 -96.3453 270° West 415 478 36,000  Level Minneapolis Center
Sat 07:21:51 PM 42.2772 -96.5028 270° West 418 481 36,000  Level Minneapolis Center
Sat 07:22:53 PM 42.2778 -96.6572 270° West 416 479 36,000  Level Minneapolis Center
Sat 07:23:54 PM 42.2769 -96.8111 270° West 412 474 36,000  Level Minneapolis Center
Sat 07:24:55 PM 42.2756 -96.9972 269° West 415 478 36,000  Level Minneapolis Center
Sat 07:25:56 PM 42.2753 -97.1506 270° West 411 473 36,000  Level Minneapolis Center
Sat 07:26:57 PM 42.2747 -97.3047 270° West 412 474 36,000  Level Minneapolis Center
Sat 07:27:59 PM 42.2736 -97.4581 269° West 411 473 36,000  Level Minneapolis Center
Sat 07:29:00 PM 42.2725 -97.6128 269° West 412 474 36,000  Level Minneapolis Center
Sat 07:30:01 PM 42.2708 -97.7672 269° West 413 475 36,000  Level Minneapolis Center
Sat 07:31:02 PM 42.2686 -97.9178 269° West 412 474 36,000  Level Minneapolis Center
Sat 07:32:03 PM 42.2672 -98.0736 269° West 415 478 36,000  Level Minneapolis Center
Sat 07:33:05 PM 42.2642 -98.2622 269° West 418 481 36,000  Level Minneapolis Center
Sat 07:34:06 PM 42.2617 -98.4208 269° West 422 486 36,000  Level Minneapolis Center
Sat 07:35:07 PM 42.2594 -98.5778 269° West 420 483 36,000  Level Minneapolis Center
Sat 07:36:08 PM 42.2567 -98.7353 269° West 422 486 36,000  Level Minneapolis Center
Sat 07:37:09 PM 42.2539 -98.8922 269° West 421 484 36,000  Level Minneapolis Center
Sat 07:38:10 PM 42.2494 -99.0481 268° West 419 482 36,000  Level Minneapolis Center
Sat 07:39:12 PM 42.2469 -99.2044 269° West 418 481 36,000  Level Minneapolis Center
Sat 07:40:13 PM 42.2425 -99.3603 268° West 417 480 36,000  Level Minneapolis Center
Sat 07:41:12 PM 42.2381 -99.5172 268° West 418 481 36,000  Level Denver Center
Sat 07:42:13 PM 42.2344 -99.6722 268° West 416 479 36,000  Level Denver Center
Sat 07:43:15 PM 42.2294 -99.8342 268° West 416 479 36,000  Level Denver Center
Sat 07:44:16 PM 42.2247 -100.0089 268° West 419 482 36,000  Level Denver Center
Sat 07:45:17 PM 42.2203 -100.1586 268° West 418 481 36,000  Level Denver Center
Sat 07:46:18 PM 42.2161 -100.2833 267° West 420 483 36,000  Level Denver Center
Sat 07:47:20 PM 42.2086 -100.4822 267° West 418 481 36,000  Level Denver Center
Sat 07:48:21 PM 42.2033 -100.6333 267° West 422 486 36,000  Level Denver Center
Sat 07:49:23 PM 42.1978 -100.8086 268° West 420 483 36,000  Level Denver Center
Sat 07:50:24 PM 42.1925 -100.9594 267° West 421 484 36,000  Level Denver Center
Sat 07:51:26 PM 42.1856 -101.1358 267° West 422 486 36,000  Level Denver Center
Sat 07:57:07 PM 42.1464 -102.0310 267° West 417 480 36,000  Level FlightAware ADS-B
Sat 07:57:59 PM 42.1397 -102.1670 266° West 415 478 36,000  Level FlightAware ADS-B
Sat 07:58:29 PM 42.1359 -102.2450 266° West 415 478 36,000  Level FlightAware ADS-B
Sat 07:59:03 PM 42.1315 -102.3320 266° West 415 478 36,000  Level FlightAware ADS-B
Sat 07:59:33 PM 42.1276 -102.4090 266° West 415 478 36,000  Level FlightAware ADS-B
Sat 08:00:03 PM 42.1237 -102.4860 266° West 416 479 36,000  Level FlightAware ADS-B
Sat 08:00:33 PM 42.1196 -102.5640 266° West 416 479 36,000  Level FlightAware ADS-B
Sat 08:01:04 PM 42.1156 -102.6410 266° West 415 478 36,000  Level FlightAware ADS-B
Sat 08:01:35 PM 42.1112 -102.7230 266° West 414 476 36,000  Level FlightAware ADS-B
Sat 08:02:06 PM 42.1070 -102.8000 266° West 414 476 36,000  Level FlightAware ADS-B
Sat 08:02:40 PM 42.1021 -102.8870 266° West 413 475 36,000  Level FlightAware ADS-B
Sat 08:03:10 PM 42.0978 -102.9650 266° West 412 474 36,000  Level FlightAware ADS-B
Sat 08:03:40 PM 42.0936 -103.0420 266° West 411 473 36,000  Level FlightAware ADS-B
Sat 08:04:11 PM 42.0891 -103.1190 266° West 411 473 36,000  Level FlightAware ADS-B
Sat 08:04:41 PM 42.0846 -103.1960 266° West 411 473 36,000  Level FlightAware ADS-B
Sat 08:05:11 PM 42.0802 -103.2740 266° West 413 475 36,000  Level FlightAware ADS-B
Sat 08:05:45 PM 42.0752 -103.3610 266° West 414 476 36,000  Level FlightAware ADS-B
Sat 08:06:20 PM 42.0699 -103.4500 265° West 414 476 36,000  Level FlightAware ADS-B
Sat 08:06:53 PM 42.0649 -103.5330 265° West 413 475 36,000  Level FlightAware ADS-B
Sat 08:07:27 PM 42.0594 -103.6210 265° West 412 474 36,000  Level FlightAware ADS-B
Sat 08:07:57 PM 42.0545 -103.6970 265° West 411 473 36,000  Level FlightAware ADS-B
Sat 08:08:27 PM 42.0495 -103.7740 265° West 410 472 36,000  Level FlightAware ADS-B
Sat 08:08:58 PM 42.0446 -103.8520 265° West 411 473 36,000  Level FlightAware ADS-B
Sat 08:09:33 PM 42.0391 -103.9410 265° West 411 473 36,000  Level FlightAware ADS-B
Sat 08:10:05 PM 42.0339 -104.0220 265° West 411 473 36,000  Level FlightAware ADS-B
Sat 08:10:35 PM 42.0288 -104.0990 265° West 412 474 36,000  Level FlightAware ADS-B
Sat 08:11:06 PM 42.0236 -104.1770 265° West 411 473 36,000  Level FlightAware ADS-B
Sat 08:11:36 PM 42.0187 -104.2530 265° West 410 472 36,000  Level FlightAware ADS-B
Sat 08:12:07 PM 42.0132 -104.3320 265° West 412 474 36,000  Level FlightAware ADS-B
Sat 08:12:37 PM 42.0079 -104.4090 265° West 414 476 36,000  Level FlightAware ADS-B
Sat 08:13:07 PM 42.0026 -104.4860 265° West 416 479 36,000  Level FlightAware ADS-B
Sat 08:13:41 PM 41.9967 -104.5710 265° West 416 479 36,000  Level FlightAware ADS-B
Sat 08:14:12 PM 41.9910 -104.6510 265° West 417 480 36,000  Level FlightAware ADS-B
Sat 08:14:42 PM 41.9854 -104.7300 265° West 418 481 36,000  Level FlightAware ADS-B
Sat 08:15:13 PM 41.9799 -104.8090 265° West 421 484 36,000  Level FlightAware ADS-B
Sat 08:15:43 PM 41.9742 -104.8880 264° West 423 487 36,000  Level FlightAware ADS-B
Sat 08:16:13 PM 41.9684 -104.9670 264° West 423 487 36,000  Level FlightAware ADS-B
Sat 08:16:43 PM 41.9625 -105.0460 264° West 423 487 36,000  Level FlightAware ADS-B
Sat 08:17:14 PM 41.9565 -105.1250 264° West 423 487 36,000  Level FlightAware ADS-B
Sat 08:17:58 PM 41.9478 -105.2410 264° West 424 488 36,000  Level FlightAware ADS-B
Sat 08:18:49 PM 41.9379 -105.3720 264° West 424 488 36,000  Level FlightAware ADS-B
Sat 08:19:32 PM 41.9300 -105.4740 264° West 417 480 36,000  Level FlightAware ADS-B
Sat 08:20:12 PM 41.9210 -105.5700 263° West 418 481 36,000  Level FlightAware ADS-B
Sat 08:20:52 PM 41.9130 -105.6820 265° West 422 486 36,000  Level FlightAware ADS-B
Sat 08:21:37 PM 41.9040 -105.8020 264° West 425 489 36,000  Level FlightAware ADS-B
Sat 08:22:17 PM 41.8950 -105.9030 263° West 427 491 36,000  Level FlightAware ADS-B
Sat 08:22:57 PM 41.8870 -106.0110 264° West 430 495 36,000  Level FlightAware ADS-B
Sat 08:23:42 PM 41.8770 -106.1290 264° West 427 491 36,000  Level FlightAware ADS-B
Sat 08:24:22 PM 41.8680 -106.2390 264° West 420 483 36,000  Level FlightAware ADS-B
Sat 08:25:07 PM 41.8580 -106.3520 263° West 416 479 36,000  Level FlightAware ADS-B
Sat 08:25:47 PM 41.8490 -106.4460 263° West 415 478 36,000  Level FlightAware ADS-B
Sat 08:26:27 PM 41.8410 -106.5330 263° West 415 478 36,000  Level FlightAware ADS-B
Sat 08:27:07 PM 41.8330 -106.6200 263° West 415 478 36,000  Level FlightAware ADS-B
Sat 08:27:47 PM 41.8250 -106.7070 263° West 415 478 36,000  Level FlightAware ADS-B
Sat 08:28:37 PM 41.8150 -106.8160 263° West 415 478 36,000  Level FlightAware ADS-B
Sat 08:29:17 PM 41.8070 -106.9030 263° West 415 478 36,000  Level FlightAware ADS-B
Sat 08:29:57 PM 41.7990 -106.9900 263° West 415 478 36,000  Level FlightAware ADS-B
Sat 08:30:37 PM 41.7920 -107.0760 264° West 415 478 36,000  Level FlightAware ADS-B
Sat 08:31:17 PM 41.7840 -107.1630 263° West 415 478 36,000  Level FlightAware ADS-B
Sat 08:32:07 PM 41.7740 -107.2720 263° West 415 478 36,000  Level FlightAware ADS-B
Sat 08:32:47 PM 41.7660 -107.3590 263° West 415 478 36,000  Level FlightAware ADS-B
Sat 08:33:27 PM 41.7580 -107.4460 263° West 415 478 36,000  Level FlightAware ADS-B
Sat 08:34:07 PM 41.7500 -107.5320 263° West 415 478 36,000  Level FlightAware ADS-B
Sat 08:34:47 PM 41.7420 -107.6190 263° West 415 478 36,000  Level FlightAware ADS-B
Sat 08:35:37 PM 41.7103 -107.9417 263° West 415 478 36,000  Level Denver Center
Sat 08:36:38 PM 41.6983 -108.0619 262° West 411 473 36,000  Level Denver Center
Sat 08:37:39 PM 41.6789 -108.2558 262° West 412 474 36,000  Level Denver Center
Sat 08:38:41 PM 41.6636 -108.3989 262° West 409 471 36,000  Level Denver Center
Sat 08:39:45 PM 41.6447 -108.5706 262° West 415 478 36,000  Level Salt Lake Center
Sat 08:40:46 PM 41.6294 -108.7156 262° West 414 476 36,000  Level Salt Lake Center
Sat 08:41:47 PM 41.6125 -108.8800 262° West 407 468 36,000  Level Salt Lake Center
Sat 08:42:48 PM 41.5975 -109.0197 262° West 401 461 36,000  Level Salt Lake Center
Sat 08:43:49 PM 41.5797 -109.1822 262° West 402 463 36,000  Level Salt Lake Center
Sat 08:44:50 PM 41.5636 -109.3208 261° West 402 463 36,000  Level Salt Lake Center
Sat 08:45:50 PM 41.5481 -109.4600 262° West 400 460 36,000  Level Salt Lake Center
Sat 08:46:51 PM 41.5289 -109.6242 261° West 402 463 36,000  Level Salt Lake Center
Sat 08:47:52 PM 41.5128 -109.7653 261° West 403 464 36,000  Level Salt Lake Center
Sat 08:48:53 PM 41.4928 -109.9336 261° West 411 473 36,000  Level Salt Lake Center
Sat 08:49:54 PM 41.4753 -110.0764 261° West 408 470 36,000  Level Salt Lake Center
Sat 08:55:12 PM 41.3810 -110.8530 261° West 397 457 36,000  Level FlightAware ADS-B
Sat 08:55:52 PM 41.3690 -110.9480 260° West 402 463 36,000  Level FlightAware ADS-B
Sat 08:56:37 PM 41.3540 -111.0580 260° West 401 461 36,000  Level FlightAware ADS-B
Sat 08:57:17 PM 41.3420 -111.1540 261° West 400 460 36,000  Level FlightAware ADS-B
Sat 08:58:02 PM 41.3280 -111.2600 260° West 406 467 36,000  Level FlightAware ADS-B
Sat 08:58:42 PM 41.3150 -111.3650 261° West 400 460 36,000  Level FlightAware ADS-B
Sat 08:59:22 PM 41.3020 -111.4620 260° West 397 457 36,000  Level FlightAware ADS-B
Sat 09:00:07 PM 41.2880 -111.5680 260° West 398 458 36,000  Level FlightAware ADS-B
Sat 09:00:47 PM 41.2750 -111.6640 260° West 401 461 36,000  Level FlightAware ADS-B
Sat 09:01:32 PM 41.2600 -111.7750 260° West 399 459 36,000  Level FlightAware ADS-B
Sat 09:02:12 PM 41.2470 -111.8710 260° West 404 465 36,000  Level FlightAware ADS-B
Sat 09:02:52 PM 41.2340 -111.9700 260° West 404 465 36,000  Level FlightAware ADS-B
Sat 09:03:37 PM 41.2190 -112.0760 259° West 404 465 36,000  Level FlightAware ADS-B
Sat 09:04:17 PM 41.2050 -112.1760 259° West 401 461 36,000  Level FlightAware ADS-B
Sat 09:04:57 PM 41.1920 -112.2720 260° West 400 460 36,000  Level FlightAware ADS-B
Sat 09:05:42 PM 41.1770 -112.3810 260° West 401 461 36,000  Level FlightAware ADS-B
Sat 09:06:22 PM 41.1630 -112.4810 259° West 401 461 36,000  Level FlightAware ADS-B
Sat 09:07:07 PM 41.1470 -112.5890 259° West 403 464 36,000  Level FlightAware ADS-B
Sat 09:07:47 PM 41.1330 -112.6860 259° West 403 464 36,000  Level FlightAware ADS-B
Sat 09:08:32 PM 41.1180 -112.7930 259° West 400 460 36,000  Level FlightAware ADS-B
Sat 09:09:12 PM 41.1040 -112.8910 259° West 398 458 36,000  Level FlightAware ADS-B
Sat 09:09:52 PM 41.0890 -112.9880 258° West 399 459 36,000  Level FlightAware ADS-B
Sat 09:10:37 PM 41.0740 -113.0950 259° West 401 461 36,000  Level FlightAware ADS-B
Sat 09:11:17 PM 41.0590 -113.1930 259° West 402 463 36,000  Level FlightAware ADS-B
Sat 09:12:02 PM 41.0430 -113.3020 259° West 403 464 36,000  Level FlightAware ADS-B
Sat 09:12:42 PM 41.0290 -113.3980 259° West 402 463 36,000  Level FlightAware ADS-B
Sat 09:13:22 PM 41.0140 -113.4950 258° West 398 458 36,000  Level FlightAware ADS-B
Sat 09:14:07 PM 40.9990 -113.6000 259° West 398 458 36,000  Level FlightAware ADS-B
Sat 09:14:47 PM 40.9850 -113.6840 258° West 398 458 36,000  Level FlightAware ADS-B
Sat 09:15:27 PM 40.9720 -113.7650 258° West 398 458 36,000  Level FlightAware ADS-B
Sat 09:16:07 PM 40.9590 -113.8470 258° West 398 458 36,000  Level FlightAware ADS-B
Sat 09:16:47 PM 40.9460 -113.9280 258° West 398 458 36,000  Level FlightAware ADS-B
Sat 09:17:37 PM 40.9300 -114.0290 258° West 398 458 36,000  Level FlightAware ADS-B
Sat 09:18:17 PM 40.9170 -114.1100 258° West 398 458 36,000  Level FlightAware ADS-B
Sat 09:18:57 PM 40.9040 -114.1910 258° West 398 458 36,000  Level FlightAware ADS-B
Sat 09:19:37 PM 40.8910 -114.2720 258° West 398 458 36,000  Level FlightAware ADS-B
Sat 09:20:17 PM 40.8780 -114.3530 258° West 398 458 36,000  Level FlightAware ADS-B
Sat 09:21:07 PM 40.8620 -114.4540 258° West 398 458 36,000  Level FlightAware ADS-B
Sat 09:21:47 PM 40.8490 -114.5350 258° West 398 458 36,000  Level FlightAware ADS-B
Sat 09:22:27 PM 40.8350 -114.6160 257° West 398 458 36,000  Level FlightAware ADS-B
Sat 09:23:07 PM 40.8220 -114.6970 258° West 398 458 36,000  Level FlightAware ADS-B
Sat 09:23:47 PM 40.8090 -114.7780 258° West 398 458 36,000  Level FlightAware ADS-B
Sat 09:24:25 PM 40.7642 -115.0594 258° West 401 461 36,000  Level Salt Lake Center
Sat 09:25:26 PM 40.7419 -115.1967 258° West 400 460 36,000  Level Salt Lake Center
Sat 09:26:27 PM 40.7194 -115.3325 258° West 397 457 36,000  Level Salt Lake Center
Sat 09:27:28 PM 40.6914 -115.4911 257° West 397 457 36,000  Level Salt Lake Center
Sat 09:28:29 PM 40.6700 -115.6264 258° West 397 457 36,000  Level Salt Lake Center
Sat 09:29:30 PM 40.6467 -115.7628 257° West 398 458 36,000  Level Salt Lake Center
Sat 09:30:31 PM 40.6189 -115.9217 257° West 399 459 36,000  Level Salt Lake Center
Sat 09:31:32 PM 40.5964 -116.0586 258° West 399 459 36,000  Level Salt Lake Center
Sat 09:32:33 PM 40.5683 -116.2186 257° West 402 463 36,000  Level Salt Lake Center
Sat 09:33:34 PM 40.5431 -116.3572 257° West 405 466 36,000  Level Salt Lake Center
Sat 09:34:35 PM 40.5192 -116.4942 257° West 403 464 36,000  Level Salt Lake Center
Sat 09:35:36 PM 40.4906 -116.6533 257° West 402 463 36,000  Level Salt Lake Center
Sat 09:36:37 PM 40.4661 -116.7908 257° West 406 467 36,000  Level Salt Lake Center
Sat 09:37:38 PM 40.4403 -116.9244 256° West 405 466 36,000  Level Salt Lake Center
Sat 09:38:39 PM 40.4128 -117.0833 257° West 409 471 36,000  Level Salt Lake Center
Sat 09:39:40 PM 40.3867 -117.2200 256° West 407 468 36,000  Level Salt Lake Center
Sat 09:40:41 PM 40.3567 -117.3806 256° West 406 467 36,000  Level Salt Lake Center
Sat 09:41:42 PM 40.3303 -117.5172 256° West 406 467 36,000  Level Salt Lake Center
Sat 09:42:43 PM 40.2819 -117.6717 248° West 418 481 36,000  Level Salt Lake Center
Sat 09:43:44 PM 40.2181 -117.7944 236° Southwest 426 490 36,000  Level Salt Lake Center
Sat 09:44:24 PM 40.1800 -117.8753 238° Southwest 427 491 36,000  Level Oakland Center
Sat 09:45:25 PM 40.1150 -118.0033 236° Southwest 424 488 36,000  Level Oakland Center
Sat 09:46:26 PM 40.0494 -118.1328 237° Southwest 427 491 36,000  Level Oakland Center
Sat 09:47:27 PM 39.9825 -118.2597 235° Southwest 426 490 36,000 -492 Level Oakland Center
Sat 09:48:28 PM 39.9044 -118.4161 237° Southwest 429 494 35,000 -1,967 Descending Oakland Center
Sat 09:49:29 PM 39.8400 -118.5411 236° Southwest 422 486 32,000 -3,000 Descending Oakland Center
Sat 09:50:30 PM 39.7731 -118.6694 236° Southwest 429 494 28,900 -2,754 Descending Oakland Center
Sat 09:51:31 PM 39.7069 -118.7964 236° Southwest 429 494 26,400 -2,459 Descending Oakland Center
Sat 09:52:32 PM 39.6639 -118.9247 246° West 404 465 23,900 -2,459 Descending Oakland Center
Sat 09:53:33 PM 39.6400 -119.0600 257° West 389 448 21,400 -2,197 Descending Oakland Center
Sat 09:58:57 PM 39.4340 -119.5930 257° West 305 351 9,800 -1,983 Descending FlightAware ADS-B
Sat 09:59:27 PM 39.4040 -119.6470 234° Southwest 249 287 9,700 -1,500 Descending FlightAware ADS-B
Sat 09:59:57 PM 39.3850 -119.6800 233° Southwest 243 280 8,300 -1,700 Descending FlightAware ADS-B
Sat 10:00:27 PM 39.3660 -119.7130 233° Southwest 244 281 8,000 -1,043 Descending FlightAware ADS-B
Sat 10:01:52 PM 39.4140 -119.7670 319° Northwest 177 204 6,300 -1,096 Descending FlightAware ADS-B
Sat 10:02:22 PM 39.4320 -119.7670 360° North 168 193 5,900 -1,100 Descending FlightAware ADS-B
Sat 10:02:52 PM 39.4480 -119.7670 360° North 155 178 5,200 -764 Descending FlightAware ADS-B
Sat 10:03:17 PM 39.4650 -119.7670 360° North 155 178 5,200  Level FlightAware ADS-B

Login

Don't have an account? Register now (free) for customized features, flight alerts, and more!